sensor_id;sensor_type;location;lat;lon;timestamp;P1;P2;P0
77516;PMS7003;68414;53.946;27.634;2023-06-14T00:00:50;2.166667;2.066667;1.266667
77516;PMS7003;68414;53.946;27.634;2023-06-14T00:01:50;2.233333;2.233333;1.583333
77516;PMS7003;68414;53.946;27.634;2023-06-14T00:02:50;2.833333;2.516667;2.150000
77516;PMS7003;68414;53.946;27.634;2023-06-14T00:03:50;2.233333;2.233333;1.400000
77516;PMS7003;68414;53.946;27.634;2023-06-14T00:04:50;3.516667;3.333333;2.266667
77516;PMS7003;68414;53.946;27.634;2023-06-14T00:05:50;2.683333;2.600000;1.700000
77516;PMS7003;68414;53.946;27.634;2023-06-14T00:06:49;3.150000;2.800000;1.950000
77516;PMS7003;68414;53.946;27.634;2023-06-14T00:07:49;3.250000;2.716667;2.033333
77516;PMS7003;68414;53.946;27.634;2023-06-14T00:08:49;2.783333;2.783333;1.983333
77516;PMS7003;68414;53.946;27.634;2023-06-14T00:09:49;2.700000;1.933333;1.616667
77516;PMS7003;68414;53.946;27.634;2023-06-14T00:10:50;2.583333;2.583333;1.783333
77516;PMS7003;68414;53.946;27.634;2023-06-14T00:11:50;2.233333;1.983333;1.350000
77516;PMS7003;68414;53.946;27.634;2023-06-14T00:12:50;2.600000;2.400000;1.816667
77516;PMS7003;68414;53.946;27.634;2023-06-14T00:13:50;2.633333;2.333333;1.933333
77516;PMS7003;68414;53.946;27.634;2023-06-14T00:14:50;2.583333;2.350000;1.500000
77516;PMS7003;68414;53.946;27.634;2023-06-14T00:15:50;3.100000;2.616667;1.883333
77516;PMS7003;68414;53.946;27.634;2023-06-14T00:16:50;2.766667;2.316667;1.466667
77516;PMS7003;68414;53.946;27.634;2023-06-14T00:17:50;3.700000;3.050000;2.433333
77516;PMS7003;68414;53.946;27.634;2023-06-14T00:18:50;2.816667;2.816667;2.000000
77516;PMS7003;68414;53.946;27.634;2023-06-14T00:19:49;2.116667;2.116667;1.533333
77516;PMS7003;68414;53.946;27.634;2023-06-14T00:20:50;3.216667;2.750000;1.833333
77516;PMS7003;68414;53.946;27.634;2023-06-14T00:21:49;2.783333;2.783333;2.200000
77516;PMS7003;68414;53.946;27.634;2023-06-14T00:22:49;3.533333;2.600000;1.683333
77516;PMS7003;68414;53.946;27.634;2023-06-14T00:23:49;3.250000;3.183333;1.800000
77516;PMS7003;68414;53.946;27.634;2023-06-14T00:24:50;2.700000;2.700000;1.950000
77516;PMS7003;68414;53.946;27.634;2023-06-14T00:25:49;2.500000;2.500000;2.050000
77516;PMS7003;68414;53.946;27.634;2023-06-14T00:26:50;2.850000;2.633333;1.516667
77516;PMS7003;68414;53.946;27.634;2023-06-14T00:27:50;2.016667;2.016667;1.433333
77516;PMS7003;68414;53.946;27.634;2023-06-14T00:28:50;3.250000;2.400000;1.700000
77516;PMS7003;68414;53.946;27.634;2023-06-14T00:29:50;3.016667;2.483333;1.783333
77516;PMS7003;68414;53.946;27.634;2023-06-14T00:30:50;2.850000;2.850000;1.750000
77516;PMS7003;68414;53.946;27.634;2023-06-14T00:31:50;4.066667;2.966667;2.366667
77516;PMS7003;68414;53.946;27.634;2023-06-14T00:32:49;3.600000;3.300000;2.333333
77516;PMS7003;68414;53.946;27.634;2023-06-14T00:33:49;2.816667;2.816667;2.050000
77516;PMS7003;68414;53.946;27.634;2023-06-14T00:34:49;3.833333;3.833333;2.433333
77516;PMS7003;68414;53.946;27.634;2023-06-14T00:35:49;2.116667;2.116667;1.716667
77516;PMS7003;68414;53.946;27.634;2023-06-14T00:36:49;2.200000;2.200000;1.933333
77516;PMS7003;68414;53.946;27.634;2023-06-14T00:37:49;3.866667;3.400000;2.483333
77516;PMS7003;68414;53.946;27.634;2023-06-14T00:38:49;3.283333;3.283333;2.116667
77516;PMS7003;68414;53.946;27.634;2023-06-14T00:39:50;3.250000;2.800000;1.833333
77516;PMS7003;68414;53.946;27.634;2023-06-14T00:40:50;2.983333;2.983333;2.133333
77516;PMS7003;68414;53.946;27.634;2023-06-14T00:41:50;2.466667;2.216667;1.583333
77516;PMS7003;68414;53.946;27.634;2023-06-14T00:42:49;3.583333;2.866667;2.050000
77516;PMS7003;68414;53.946;27.634;2023-06-14T00:43:50;3.150000;2.966667;1.983333
77516;PMS7003;68414;53.946;27.634;2023-06-14T00:44:50;3.616667;3.066667;2.433333
77516;PMS7003;68414;53.946;27.634;2023-06-14T00:45:49;3.016667;2.216667;1.700000
77516;PMS7003;68414;53.946;27.634;2023-06-14T00:46:49;4.183333;3.716667;2.516667
77516;PMS7003;68414;53.946;27.634;2023-06-14T00:47:51;3.116667;2.566667;1.750000
77516;PMS7003;68414;53.946;27.634;2023-06-14T00:48:50;4.100000;3.550000;2.200000
77516;PMS7003;68414;53.946;27.634;2023-06-14T00:49:50;3.116667;2.750000;1.933333
77516;PMS7003;68414;53.946;27.634;2023-06-14T00:50:51;2.783333;2.483333;2.000000
77516;PMS7003;68414;53.946;27.634;2023-06-14T00:51:50;3.516667;2.483333;1.833333
77516;PMS7003;68414;53.946;27.634;2023-06-14T00:52:49;2.833333;2.800000;2.183333
77516;PMS7003;68414;53.946;27.634;2023-06-14T00:53:50;2.683333;2.200000;1.816667
77516;PMS7003;68414;53.946;27.634;2023-06-14T00:54:50;3.333333;2.383333;1.666667
77516;PMS7003;68414;53.946;27.634;2023-06-14T00:55:50;2.850000;2.850000;2.100000
77516;PMS7003;68414;53.946;27.634;2023-06-14T00:56:50;2.916667;2.783333;1.800000
77516;PMS7003;68414;53.946;27.634;2023-06-14T00:57:51;2.616667;2.616667;1.833333
77516;PMS7003;68414;53.946;27.634;2023-06-14T00:58:50;3.600000;3.366667;2.416667
77516;PMS7003;68414;53.946;27.634;2023-06-14T00:59:50;1.966667;1.966667;1.666667
77516;PMS7003;68414;53.946;27.634;2023-06-14T01:00:49;3.116667;3.116667;1.950000
77516;PMS7003;68414;53.946;27.634;2023-06-14T01:01:49;3.416667;2.916667;2.000000
77516;PMS7003;68414;53.946;27.634;2023-06-14T01:02:49;3.833333;3.300000;2.016667
77516;PMS7003;68414;53.946;27.634;2023-06-14T01:03:50;2.850000;2.850000;2.266667
77516;PMS7003;68414;53.946;27.634;2023-06-14T01:04:51;2.000000;2.000000;1.283333
77516;PMS7003;68414;53.946;27.634;2023-06-14T01:05:53;2.900000;2.900000;2.133333
77516;PMS7003;68414;53.946;27.634;2023-06-14T01:10:53;3.150000;2.933333;2.066667
77516;PMS7003;68414;53.946;27.634;2023-06-14T01:13:52;3.533333;3.283333;2.533333
77516;PMS7003;68414;53.946;27.634;2023-06-14T01:14:50;4.416667;3.416667;2.066667
77516;PMS7003;68414;53.946;27.634;2023-06-14T01:15:50;3.483333;3.166667;2.383333
77516;PMS7003;68414;53.946;27.634;2023-06-14T01:16:50;3.100000;2.916667;1.950000
77516;PMS7003;68414;53.946;27.634;2023-06-14T01:17:50;3.383333;3.316667;2.616667
77516;PMS7003;68414;53.946;27.634;2023-06-14T01:18:51;3.450000;2.616667;2.083333
77516;PMS7003;68414;53.946;27.634;2023-06-14T01:19:51;3.366667;3.150000;2.300000
77516;PMS7003;68414;53.946;27.634;2023-06-14T01:20:50;2.766667;2.200000;1.783333
77516;PMS7003;68414;53.946;27.634;2023-06-14T01:21:49;2.916667;2.900000;2.283333
77516;PMS7003;68414;53.946;27.634;2023-06-14T01:22:52;3.300000;3.300000;2.333333
77516;PMS7003;68414;53.946;27.634;2023-06-14T01:23:50;3.433333;3.133333;2.400000
77516;PMS7003;68414;53.946;27.634;2023-06-14T01:24:49;3.100000;3.100000;2.416667
77516;PMS7003;68414;53.946;27.634;2023-06-14T01:25:50;3.633333;2.583333;1.633333
77516;PMS7003;68414;53.946;27.634;2023-06-14T01:26:49;3.900000;3.366667;2.250000
77516;PMS7003;68414;53.946;27.634;2023-06-14T01:27:55;3.333333;3.316667;1.866667
77516;PMS7003;68414;53.946;27.634;2023-06-14T01:28:50;4.716667;4.266667;2.450000
77516;PMS7003;68414;53.946;27.634;2023-06-14T01:29:51;4.200000;3.983333;2.983333
77516;PMS7003;68414;53.946;27.634;2023-06-14T01:30:52;3.883333;3.550000;2.283333
77516;PMS7003;68414;53.946;27.634;2023-06-14T01:31:50;3.050000;2.833333;2.216667
77516;PMS7003;68414;53.946;27.634;2023-06-14T01:32:50;4.333333;4.133333;2.883333
77516;PMS7003;68414;53.946;27.634;2023-06-14T01:33:51;7.000000;4.966667;3.116667
77516;PMS7003;68414;53.946;27.634;2023-06-14T01:34:50;4.883333;4.483333;3.083333
77516;PMS7003;68414;53.946;27.634;2023-06-14T01:35:51;4.433333;3.933333;2.750000
77516;PMS7003;68414;53.946;27.634;2023-06-14T01:36:50;4.200000;3.933333;3.133333
77516;PMS7003;68414;53.946;27.634;2023-06-14T01:37:50;3.433333;3.283333;2.183333
77516;PMS7003;68414;53.946;27.634;2023-06-14T01:38:50;3.883333;3.750000;2.616667
77516;PMS7003;68414;53.946;27.634;2023-06-14T01:39:50;5.783333;4.500000;3.150000
77516;PMS7003;68414;53.946;27.634;2023-06-14T01:40:51;4.916667;4.383333;3.116667
77516;PMS7003;68414;53.946;27.634;2023-06-14T01:41:51;4.266667;4.266667;2.733333
77516;PMS7003;68414;53.946;27.634;2023-06-14T01:42:50;5.433333;4.850000;3.650000
77516;PMS7003;68414;53.946;27.634;2023-06-14T01:43:50;4.850000;4.216667;3.300000
77516;PMS7003;68414;53.946;27.634;2023-06-14T01:44:51;4.100000;3.600000;2.800000
77516;PMS7003;68414;53.946;27.634;2023-06-14T01:45:50;5.083333;4.566667;2.883333
77516;PMS7003;68414;53.946;27.634;2023-06-14T01:46:50;4.933333;4.933333;3.700000
77516;PMS7003;68414;53.946;27.634;2023-06-14T01:47:49;4.950000;4.950000;3.033333
77516;PMS7003;68414;53.946;27.634;2023-06-14T01:48:50;5.166667;4.566667;2.866667
77516;PMS7003;68414;53.946;27.634;2023-06-14T01:49:50;4.450000;4.116667;2.783333
77516;PMS7003;68414;53.946;27.634;2023-06-14T01:50:49;3.833333;3.450000;2.916667
77516;PMS7003;68414;53.946;27.634;2023-06-14T01:51:49;3.400000;3.166667;2.550000
77516;PMS7003;68414;53.946;27.634;2023-06-14T01:52:49;4.600000;4.433333;3.200000
77516;PMS7003;68414;53.946;27.634;2023-06-14T01:53:49;4.966667;4.366667;3.316667
77516;PMS7003;68414;53.946;27.634;2023-06-14T01:54:51;5.866667;4.633333;3.300000
77516;PMS7003;68414;53.946;27.634;2023-06-14T01:55:49;5.366667;5.216667;3.450000
77516;PMS7003;68414;53.946;27.634;2023-06-14T01:56:49;4.883333;4.200000;2.883333
77516;PMS7003;68414;53.946;27.634;2023-06-14T01:57:50;4.500000;4.300000;3.066667
77516;PMS7003;68414;53.946;27.634;2023-06-14T01:58:49;3.683333;3.616667;2.650000
77516;PMS7003;68414;53.946;27.634;2023-06-14T01:59:49;4.200000;3.516667;3.000000
77516;PMS7003;68414;53.946;27.634;2023-06-14T02:00:49;3.633333;3.533333;2.216667
77516;PMS7003;68414;53.946;27.634;2023-06-14T02:01:49;6.383333;6.050000;4.000000
77516;PMS7003;68414;53.946;27.634;2023-06-14T02:02:49;5.566667;5.166667;3.683333
77516;PMS7003;68414;53.946;27.634;2023-06-14T02:03:49;4.683333;4.483333;3.133333
77516;PMS7003;68414;53.946;27.634;2023-06-14T02:04:49;4.333333;4.333333;2.683333
77516;PMS7003;68414;53.946;27.634;2023-06-14T02:05:50;4.300000;4.300000;3.016667
77516;PMS7003;68414;53.946;27.634;2023-06-14T02:06:49;3.616667;3.616667;2.916667
77516;PMS7003;68414;53.946;27.634;2023-06-14T02:07:49;3.683333;3.166667;2.700000
77516;PMS7003;68414;53.946;27.634;2023-06-14T02:08:49;5.483333;5.416667;3.700000
77516;PMS7003;68414;53.946;27.634;2023-06-14T02:09:49;4.616667;4.450000;3.033333
77516;PMS7003;68414;53.946;27.634;2023-06-14T02:10:50;4.233333;4.066667;2.783333
77516;PMS7003;68414;53.946;27.634;2023-06-14T02:11:49;4.766667;3.983333;2.833333
77516;PMS7003;68414;53.946;27.634;2023-06-14T02:12:49;4.650000;4.650000;3.383333
77516;PMS7003;68414;53.946;27.634;2023-06-14T02:13:49;3.666667;3.666667;3.033333
77516;PMS7003;68414;53.946;27.634;2023-06-14T02:14:49;6.300000;4.766667;3.583333
77516;PMS7003;68414;53.946;27.634;2023-06-14T02:15:49;5.716667;5.066667;3.583333
77516;PMS7003;68414;53.946;27.634;2023-06-14T02:16:49;4.266667;3.950000;2.983333
77516;PMS7003;68414;53.946;27.634;2023-06-14T02:17:49;4.466667;4.066667;2.466667
77516;PMS7003;68414;53.946;27.634;2023-06-14T02:18:49;4.233333;3.883333;2.650000
77516;PMS7003;68414;53.946;27.634;2023-06-14T02:19:49;4.766667;4.333333;3.250000
77516;PMS7003;68414;53.946;27.634;2023-06-14T02:20:50;4.250000;3.950000;3.133333
77516;PMS7003;68414;53.946;27.634;2023-06-14T02:21:49;4.650000;4.383333;2.833333
77516;PMS7003;68414;53.946;27.634;2023-06-14T02:22:49;4.633333;4.483333;3.216667
77516;PMS7003;68414;53.946;27.634;2023-06-14T02:23:49;5.466667;4.000000;3.183333
77516;PMS7003;68414;53.946;27.634;2023-06-14T02:24:49;4.866667;4.866667;3.416667
77516;PMS7003;68414;53.946;27.634;2023-06-14T02:25:49;5.433333;5.066667;3.716667
77516;PMS7003;68414;53.946;27.634;2023-06-14T02:26:49;4.150000;3.833333;3.250000
77516;PMS7003;68414;53.946;27.634;2023-06-14T02:27:49;4.016667;3.533333;2.983333
77516;PMS7003;68414;53.946;27.634;2023-06-14T02:28:49;3.750000;3.750000;2.600000
77516;PMS7003;68414;53.946;27.634;2023-06-14T02:29:49;4.950000;4.950000;3.933333
77516;PMS7003;68414;53.946;27.634;2023-06-14T02:30:49;4.066667;3.533333;2.850000
77516;PMS7003;68414;53.946;27.634;2023-06-14T02:31:49;4.866667;4.516667;3.700000
77516;PMS7003;68414;53.946;27.634;2023-06-14T02:32:49;5.866667;5.150000;4.066667
77516;PMS7003;68414;53.946;27.634;2023-06-14T02:33:49;5.233333;4.650000;2.933333
77516;PMS7003;68414;53.946;27.634;2023-06-14T02:34:49;5.033333;4.966667;3.100000
77516;PMS7003;68414;53.946;27.634;2023-06-14T02:35:49;3.500000;3.500000;2.933333
77516;PMS7003;68414;53.946;27.634;2023-06-14T02:36:49;5.233333;5.233333;3.683333
77516;PMS7003;68414;53.946;27.634;2023-06-14T02:37:49;4.350000;3.783333;2.850000
77516;PMS7003;68414;53.946;27.634;2023-06-14T02:38:49;4.183333;3.766667;2.900000
77516;PMS7003;68414;53.946;27.634;2023-06-14T02:39:49;4.233333;4.233333;3.100000
77516;PMS7003;68414;53.946;27.634;2023-06-14T02:40:49;5.383333;4.966667;3.066667
77516;PMS7003;68414;53.946;27.634;2023-06-14T02:41:50;4.450000;4.216667;3.450000
77516;PMS7003;68414;53.946;27.634;2023-06-14T02:42:49;3.450000;3.400000;2.833333
77516;PMS7003;68414;53.946;27.634;2023-06-14T02:43:49;3.933333;2.833333;2.050000
77516;PMS7003;68414;53.946;27.634;2023-06-14T02:44:49;3.900000;3.300000;2.366667
77516;PMS7003;68414;53.946;27.634;2023-06-14T02:45:49;4.350000;3.933333;2.466667
77516;PMS7003;68414;53.946;27.634;2023-06-14T02:46:49;4.083333;3.916667;2.766667
77516;PMS7003;68414;53.946;27.634;2023-06-14T02:47:49;3.450000;3.333333;2.100000
77516;PMS7003;68414;53.946;27.634;2023-06-14T02:48:50;4.283333;3.933333;2.916667
77516;PMS7003;68414;53.946;27.634;2023-06-14T02:49:49;5.600000;4.550000;3.200000
77516;PMS7003;68414;53.946;27.634;2023-06-14T02:50:49;4.316667;4.116667;2.983333
77516;PMS7003;68414;53.946;27.634;2023-06-14T02:51:49;4.266667;3.950000;3.166667
77516;PMS7003;68414;53.946;27.634;2023-06-14T02:52:49;3.916667;3.666667;2.233333
77516;PMS7003;68414;53.946;27.634;2023-06-14T02:53:49;4.250000;4.050000;3.150000
77516;PMS7003;68414;53.946;27.634;2023-06-14T02:54:49;4.066667;4.066667;2.833333
77516;PMS7003;68414;53.946;27.634;2023-06-14T02:55:49;4.450000;4.450000;2.966667
77516;PMS7003;68414;53.946;27.634;2023-06-14T02:56:49;4.333333;4.033333;2.583333
77516;PMS7003;68414;53.946;27.634;2023-06-14T02:57:49;3.883333;3.883333;2.650000
77516;PMS7003;68414;53.946;27.634;2023-06-14T02:58:49;3.716667;3.716667;2.783333
77516;PMS7003;68414;53.946;27.634;2023-06-14T02:59:49;3.433333;3.433333;2.783333
77516;PMS7003;68414;53.946;27.634;2023-06-14T03:00:49;4.316667;3.850000;2.566667
77516;PMS7003;68414;53.946;27.634;2023-06-14T03:01:49;5.216667;4.800000;2.983333
77516;PMS7003;68414;53.946;27.634;2023-06-14T03:02:49;4.200000;3.616667;2.716667
77516;PMS7003;68414;53.946;27.634;2023-06-14T03:03:49;4.700000;4.116667;2.850000
77516;PMS7003;68414;53.946;27.634;2023-06-14T03:04:49;4.583333;3.516667;2.483333
77516;PMS7003;68414;53.946;27.634;2023-06-14T03:05:50;4.516667;3.500000;2.783333
77516;PMS7003;68414;53.946;27.634;2023-06-14T03:06:49;3.733333;3.533333;2.816667
77516;PMS7003;68414;53.946;27.634;2023-06-14T03:07:49;4.266667;4.266667;3.183333
77516;PMS7003;68414;53.946;27.634;2023-06-14T03:08:49;5.383333;4.283333;2.783333
77516;PMS7003;68414;53.946;27.634;2023-06-14T03:09:49;6.233333;5.833333;4.133333
77516;PMS7003;68414;53.946;27.634;2023-06-14T03:10:49;3.500000;3.500000;2.683333
77516;PMS7003;68414;53.946;27.634;2023-06-14T03:11:49;3.466667;3.466667;2.700000
77516;PMS7003;68414;53.946;27.634;2023-06-14T03:12:49;5.450000;5.183333;3.116667
77516;PMS7003;68414;53.946;27.634;2023-06-14T03:13:49;5.466667;4.883333;2.916667
77516;PMS7003;68414;53.946;27.634;2023-06-14T03:14:49;4.116667;3.866667;2.950000
77516;PMS7003;68414;53.946;27.634;2023-06-14T03:15:49;4.383333;4.100000;3.183333
77516;PMS7003;68414;53.946;27.634;2023-06-14T03:16:49;4.550000;3.850000;3.166667
77516;PMS7003;68414;53.946;27.634;2023-06-14T03:17:49;5.416667;4.183333;3.116667
77516;PMS7003;68414;53.946;27.634;2023-06-14T03:18:51;4.700000;4.266667;2.983333
77516;PMS7003;68414;53.946;27.634;2023-06-14T03:19:49;5.266667;4.300000;3.083333
77516;PMS7003;68414;53.946;27.634;2023-06-14T03:20:49;5.383333;4.666667;3.666667
77516;PMS7003;68414;53.946;27.634;2023-06-14T03:21:49;5.150000;4.666667;3.333333
77516;PMS7003;68414;53.946;27.634;2023-06-14T03:22:49;3.650000;3.650000;2.416667
77516;PMS7003;68414;53.946;27.634;2023-06-14T03:23:49;4.716667;4.600000;3.433333
77516;PMS7003;68414;53.946;27.634;2023-06-14T03:24:49;4.550000;3.800000;2.750000
77516;PMS7003;68414;53.946;27.634;2023-06-14T03:25:49;4.950000;3.200000;2.633333
77516;PMS7003;68414;53.946;27.634;2023-06-14T03:26:49;4.616667;4.483333;3.666667
77516;PMS7003;68414;53.946;27.634;2023-06-14T03:27:49;4.150000;3.766667;2.833333
77516;PMS7003;68414;53.946;27.634;2023-06-14T03:28:49;5.933333;5.266667;3.583333
77516;PMS7003;68414;53.946;27.634;2023-06-14T03:29:49;5.016667;4.666667;3.783333
77516;PMS7003;68414;53.946;27.634;2023-06-14T03:30:49;3.683333;3.583333;2.416667
77516;PMS7003;68414;53.946;27.634;2023-06-14T03:32:49;4.666667;4.666667;3.433333
77516;PMS7003;68414;53.946;27.634;2023-06-14T03:33:49;4.533333;4.216667;3.050000
77516;PMS7003;68414;53.946;27.634;2023-06-14T03:34:49;5.100000;4.733333;3.316667
77516;PMS7003;68414;53.946;27.634;2023-06-14T03:35:49;4.883333;4.350000;2.883333
77516;PMS7003;68414;53.946;27.634;2023-06-14T03:36:49;4.733333;4.300000;2.833333
77516;PMS7003;68414;53.946;27.634;2023-06-14T03:37:49;4.783333;4.300000;2.816667
77516;PMS7003;68414;53.946;27.634;2023-06-14T03:38:49;5.600000;5.300000;3.750000
77516;PMS7003;68414;53.946;27.634;2023-06-14T03:39:49;4.750000;4.366667;3.183333
77516;PMS7003;68414;53.946;27.634;2023-06-14T03:40:49;4.900000;4.383333;3.233333
77516;PMS7003;68414;53.946;27.634;2023-06-14T03:41:49;5.200000;4.933333;3.316667
77516;PMS7003;68414;53.946;27.634;2023-06-14T03:42:49;4.333333;3.683333;2.950000
77516;PMS7003;68414;53.946;27.634;2023-06-14T03:43:49;5.133333;4.750000;3.150000
77516;PMS7003;68414;53.946;27.634;2023-06-14T03:44:49;5.000000;5.000000;3.233333
77516;PMS7003;68414;53.946;27.634;2023-06-14T03:45:49;5.533333;4.550000;3.633333
77516;PMS7003;68414;53.946;27.634;2023-06-14T03:46:49;6.816667;6.433333;4.383333
77516;PMS7003;68414;53.946;27.634;2023-06-14T03:47:49;7.766667;6.683333;4.333333
77516;PMS7003;68414;53.946;27.634;2023-06-14T03:48:49;5.383333;5.250000;4.100000
77516;PMS7003;68414;53.946;27.634;2023-06-14T03:49:49;5.416667;4.983333;3.433333
77516;PMS7003;68414;53.946;27.634;2023-06-14T03:50:49;5.966667;5.600000;3.550000
77516;PMS7003;68414;53.946;27.634;2023-06-14T03:51:49;6.233333;5.216667;3.583333
77516;PMS7003;68414;53.946;27.634;2023-06-14T03:52:49;5.833333;5.366667;3.833333
77516;PMS7003;68414;53.946;27.634;2023-06-14T03:53:49;4.683333;4.100000;3.216667
77516;PMS7003;68414;53.946;27.634;2023-06-14T03:54:49;5.950000;5.516667;3.666667
77516;PMS7003;68414;53.946;27.634;2023-06-14T03:55:50;5.066667;5.066667;3.300000
77516;PMS7003;68414;53.946;27.634;2023-06-14T03:56:49;4.316667;3.616667;2.583333
77516;PMS7003;68414;53.946;27.634;2023-06-14T03:57:49;4.466667;4.116667;2.966667
77516;PMS7003;68414;53.946;27.634;2023-06-14T03:58:50;5.700000;5.150000;3.550000
77516;PMS7003;68414;53.946;27.634;2023-06-14T03:59:49;4.583333;4.383333;2.750000
77516;PMS7003;68414;53.946;27.634;2023-06-14T04:00:49;4.333333;4.333333;2.816667
77516;PMS7003;68414;53.946;27.634;2023-06-14T04:01:50;5.000000;4.800000;2.983333
77516;PMS7003;68414;53.946;27.634;2023-06-14T04:02:49;4.516667;4.400000;3.016667
77516;PMS7003;68414;53.946;27.634;2023-06-14T04:03:49;4.733333;4.000000;3.200000
77516;PMS7003;68414;53.946;27.634;2023-06-14T04:04:49;4.616667;4.533333;3.733333
77516;PMS7003;68414;53.946;27.634;2023-06-14T04:05:49;5.683333;4.750000;3.433333
77516;PMS7003;68414;53.946;27.634;2023-06-14T04:06:49;5.350000;4.350000;2.850000
77516;PMS7003;68414;53.946;27.634;2023-06-14T04:07:49;5.166667;4.350000;3.166667
77516;PMS7003;68414;53.946;27.634;2023-06-14T04:08:49;5.383333;4.583333;3.550000
77516;PMS7003;68414;53.946;27.634;2023-06-14T04:09:49;5.983333;5.266667;3.433333
77516;PMS7003;68414;53.946;27.634;2023-06-14T04:10:49;5.250000;4.916667;2.916667
77516;PMS7003;68414;53.946;27.634;2023-06-14T04:11:50;5.900000;5.266667;3.500000
77516;PMS7003;68414;53.946;27.634;2023-06-14T04:12:49;4.650000;4.650000;3.266667
77516;PMS7003;68414;53.946;27.634;2023-06-14T04:13:49;4.433333;4.183333;2.533333
77516;PMS7003;68414;53.946;27.634;2023-06-14T04:14:49;3.666667;3.666667;2.533333
77516;PMS7003;68414;53.946;27.634;2023-06-14T04:15:50;5.166667;4.466667;3.116667
77516;PMS7003;68414;53.946;27.634;2023-06-14T04:16:50;3.766667;3.766667;3.250000
77516;PMS7003;68414;53.946;27.634;2023-06-14T04:17:49;4.433333;4.300000;3.616667
77516;PMS7003;68414;53.946;27.634;2023-06-14T04:18:49;5.716667;5.366667;3.716667
77516;PMS7003;68414;53.946;27.634;2023-06-14T04:19:49;4.916667;4.433333;3.083333
77516;PMS7003;68414;53.946;27.634;2023-06-14T04:20:49;5.050000;5.050000;3.383333
77516;PMS7003;68414;53.946;27.634;2023-06-14T04:21:50;4.450000;4.450000;2.966667
77516;PMS7003;68414;53.946;27.634;2023-06-14T04:22:49;4.733333;3.783333;3.150000
77516;PMS7003;68414;53.946;27.634;2023-06-14T04:23:49;5.300000;5.300000;3.783333
77516;PMS7003;68414;53.946;27.634;2023-06-14T04:24:49;4.816667;4.566667;3.083333
77516;PMS7003;68414;53.946;27.634;2023-06-14T04:25:49;5.916667;4.933333;3.250000
77516;PMS7003;68414;53.946;27.634;2023-06-14T04:26:50;5.150000;4.833333;3.683333
77516;PMS7003;68414;53.946;27.634;2023-06-14T04:27:49;4.350000;4.116667;3.366667
77516;PMS7003;68414;53.946;27.634;2023-06-14T04:28:50;5.650000;4.933333;3.783333
77516;PMS7003;68414;53.946;27.634;2023-06-14T04:29:49;4.950000;4.950000;3.633333
77516;PMS7003;68414;53.946;27.634;2023-06-14T04:30:49;5.500000;5.500000;3.766667
77516;PMS7003;68414;53.946;27.634;2023-06-14T04:31:49;6.083333;5.583333;3.700000
77516;PMS7003;68414;53.946;27.634;2023-06-14T04:32:49;5.916667;4.800000;3.916667
77516;PMS7003;68414;53.946;27.634;2023-06-14T04:33:49;4.716667;4.566667;3.583333
77516;PMS7003;68414;53.946;27.634;2023-06-14T04:34:53;4.516667;4.133333;3.166667
77516;PMS7003;68414;53.946;27.634;2023-06-14T04:35:49;7.250000;5.650000;4.100000
77516;PMS7003;68414;53.946;27.634;2023-06-14T04:36:49;4.233333;4.150000;3.233333
77516;PMS7003;68414;53.946;27.634;2023-06-14T04:37:49;6.816667;5.800000;3.766667
77516;PMS7003;68414;53.946;27.634;2023-06-14T04:38:49;5.483333;4.700000;3.533333
77516;PMS7003;68414;53.946;27.634;2023-06-14T04:39:49;4.333333;3.900000;2.950000
77516;PMS7003;68414;53.946;27.634;2023-06-14T04:40:49;4.433333;4.116667;2.733333
77516;PMS7003;68414;53.946;27.634;2023-06-14T04:41:49;4.783333;4.350000;3.166667
77516;PMS7003;68414;53.946;27.634;2023-06-14T04:42:49;5.533333;5.533333;3.383333
77516;PMS7003;68414;53.946;27.634;2023-06-14T04:43:49;4.883333;4.416667;3.400000
77516;PMS7003;68414;53.946;27.634;2023-06-14T04:44:49;5.500000;5.133333;3.466667
77516;PMS7003;68414;53.946;27.634;2023-06-14T04:45:49;5.566667;5.033333;3.400000
77516;PMS7003;68414;53.946;27.634;2023-06-14T04:46:49;5.783333;5.166667;3.766667
77516;PMS7003;68414;53.946;27.634;2023-06-14T04:47:49;5.733333;5.133333;3.750000
77516;PMS7003;68414;53.946;27.634;2023-06-14T04:48:49;5.233333;4.433333;3.216667
77516;PMS7003;68414;53.946;27.634;2023-06-14T04:49:49;5.566667;4.866667;3.350000
77516;PMS7003;68414;53.946;27.634;2023-06-14T04:50:49;4.883333;4.333333;3.366667
77516;PMS7003;68414;53.946;27.634;2023-06-14T04:51:49;5.800000;5.016667;3.183333
77516;PMS7003;68414;53.946;27.634;2023-06-14T04:52:49;5.466667;5.433333;4.133333
77516;PMS7003;68414;53.946;27.634;2023-06-14T04:53:49;5.333333;5.333333;4.050000
77516;PMS7003;68414;53.946;27.634;2023-06-14T04:54:49;4.633333;4.633333;3.066667
77516;PMS7003;68414;53.946;27.634;2023-06-14T04:55:49;5.583333;5.300000;3.966667
77516;PMS7003;68414;53.946;27.634;2023-06-14T04:56:49;5.433333;5.233333;3.716667
77516;PMS7003;68414;53.946;27.634;2023-06-14T04:57:49;5.400000;4.900000;3.933333
77516;PMS7003;68414;53.946;27.634;2023-06-14T04:58:49;4.933333;4.933333;3.333333
77516;PMS7003;68414;53.946;27.634;2023-06-14T04:59:49;5.783333;4.916667;3.300000
77516;PMS7003;68414;53.946;27.634;2023-06-14T05:00:49;5.166667;5.133333;3.133333
77516;PMS7003;68414;53.946;27.634;2023-06-14T05:01:50;5.066667;3.883333;2.383333